createdAt,value
2023-04-27T00:00:59.079Z,3.95
2023-04-27T00:03:32.469Z,3.91
2023-04-27T00:06:00.370Z,3.90
2023-04-27T00:08:28.481Z,3.90
2023-04-27T00:11:00.668Z,3.91
2023-04-27T00:13:28.103Z,3.90
2023-04-27T00:15:55.709Z,3.87
2023-04-27T00:18:23.174Z,3.87
2023-04-27T00:20:51.806Z,3.87
2023-04-27T00:23:19.330Z,3.83
2023-04-27T00:25:47.722Z,3.81
2023-04-27T00:28:15.158Z,3.80
2023-04-27T00:30:45.022Z,3.76
2023-04-27T00:33:12.432Z,3.73
2023-04-27T00:35:41.485Z,3.73
2023-04-27T00:38:08.720Z,3.73
2023-04-27T00:40:36.023Z,3.71
2023-04-27T00:43:06.475Z,3.67
2023-04-27T00:45:43.450Z,3.61
2023-04-27T00:48:14.897Z,3.56
2023-04-27T00:50:49.852Z,3.49
2023-04-27T00:53:20.912Z,3.51
2023-04-27T00:55:50.465Z,3.42
2023-04-27T00:58:23.121Z,3.39
2023-04-27T01:00:51.224Z,3.35
2023-04-27T01:03:42.101Z,3.30
2023-04-27T01:06:14.774Z,3.28
2023-04-27T01:08:44.243Z,3.21
2023-04-27T01:11:11.578Z,3.18
2023-04-27T01:13:47.045Z,3.15
2023-04-27T01:16:14.537Z,3.13
2023-04-27T01:18:44.288Z,3.12
2023-04-27T01:21:13.944Z,3.09
2023-04-27T01:23:41.400Z,3.02
2023-04-27T01:26:13.698Z,3.04
2023-04-27T01:28:43.506Z,3.01
2023-04-27T01:31:13.243Z,2.95
2023-04-27T01:33:42.487Z,2.95
2023-04-27T01:36:11.756Z,2.93
2023-04-27T01:38:40.862Z,2.89
2023-04-27T01:41:09.366Z,2.88
2023-04-27T01:43:39.790Z,2.84
2023-04-27T01:46:14.737Z,2.82
2023-04-27T01:48:45.990Z,2.81
2023-04-27T01:51:15.804Z,2.78
2023-04-27T01:53:46.342Z,2.75
2023-04-27T01:56:16.142Z,2.72
2023-04-27T01:58:43.769Z,2.72
2023-04-27T02:01:12.633Z,2.71
2023-04-27T02:03:44.200Z,2.71
2023-04-27T02:06:15.426Z,2.66
2023-04-27T02:08:43.372Z,2.65
2023-04-27T02:11:10.861Z,2.66
2023-04-27T02:13:39.699Z,2.65
2023-04-27T02:16:08.808Z,2.65
2023-04-27T02:18:36.593Z,2.65
2023-04-27T02:21:10.742Z,2.66
2023-04-27T02:23:38.458Z,2.63
2023-04-27T02:26:06.566Z,2.64
2023-04-27T02:28:33.890Z,2.62
2023-04-27T02:31:02.026Z,2.63
2023-04-27T02:33:32.093Z,2.62
2023-04-27T02:35:59.454Z,2.62
2023-04-27T02:38:30.851Z,2.59
2023-04-27T02:40:59.604Z,2.58
2023-04-27T02:43:29.961Z,2.57
2023-04-27T02:46:01.921Z,2.55
2023-04-27T02:48:32.879Z,2.51
2023-04-27T02:51:05.234Z,2.46
2023-04-27T02:53:32.634Z,2.49
2023-04-27T02:56:02.068Z,2.48
2023-04-27T02:58:29.386Z,2.44
2023-04-27T03:00:57.959Z,2.38
2023-04-27T03:03:25.895Z,2.41
2023-04-27T03:05:53.371Z,2.39
2023-04-27T03:08:20.799Z,2.38
2023-04-27T03:10:48.888Z,2.36
2023-04-27T03:13:17.721Z,2.34
2023-04-27T03:15:52.340Z,2.32
2023-04-27T03:18:23.409Z,2.31
2023-04-27T03:20:51.021Z,2.30
2023-04-27T03:23:18.258Z,2.29
2023-04-27T03:25:46.263Z,2.25
2023-04-27T03:28:13.518Z,2.24
2023-04-27T03:30:41.434Z,2.20
2023-04-27T03:33:09.906Z,2.20
2023-04-27T03:35:39.421Z,2.18
2023-04-27T03:38:07.186Z,2.17
2023-04-27T03:40:34.529Z,2.17
2023-04-27T03:43:01.978Z,2.15
2023-04-27T03:45:30.373Z,2.11
2023-04-27T03:47:57.743Z,2.11
2023-04-27T03:50:30.154Z,2.10
2023-04-27T03:52:58.772Z,2.08
2023-04-27T03:55:30.859Z,2.07
2023-04-27T03:58:00.976Z,2.06
2023-04-27T04:00:31.527Z,2.03
2023-04-27T04:02:59.413Z,2.02
2023-04-27T04:05:33.390Z,2.01
2023-04-27T04:08:02.656Z,1.96
2023-04-27T04:10:29.968Z,1.95
2023-04-27T04:12:58.633Z,1.94
2023-04-27T04:15:27.710Z,1.92
2023-04-27T04:17:56.129Z,1.91
2023-04-27T04:20:24.174Z,1.90
2023-04-27T04:22:51.411Z,1.90
2023-04-27T04:25:20.786Z,1.90
2023-04-27T04:27:51.080Z,1.89
2023-04-27T04:30:19.696Z,1.89
2023-04-27T04:32:50.837Z,1.90
2023-04-27T04:35:19.685Z,1.90
2023-04-27T04:37:49.935Z,1.92
2023-04-27T04:40:17.647Z,2.05
2023-04-27T04:42:46.685Z,2.06
2023-04-27T04:45:15.426Z,2.18
2023-04-27T04:47:44.031Z,2.28
2023-04-27T04:50:14.241Z,2.37
2023-04-27T04:52:46.391Z,2.39
2023-04-27T04:55:14.364Z,2.43
2023-04-27T04:57:42.261Z,2.49
2023-04-27T05:00:13.630Z,2.50
2023-04-27T05:02:42.462Z,2.58
2023-04-27T05:05:11.510Z,2.66
2023-04-27T05:07:39.610Z,2.75
2023-04-27T05:10:07.787Z,2.90
2023-04-27T05:12:35.952Z,3.01
2023-04-27T05:15:05.625Z,3.11
2023-04-27T05:17:32.982Z,3.16
2023-04-27T05:20:02.557Z,3.17
2023-04-27T05:22:31.667Z,3.19
2023-04-27T05:24:59.832Z,3.18
2023-04-27T05:27:28.299Z,3.22
2023-04-27T05:29:55.751Z,3.22
2023-04-27T05:32:24.542Z,3.27
2023-04-27T05:34:53.947Z,3.29
2023-04-27T05:37:21.372Z,3.36
2023-04-27T05:39:48.874Z,3.43
2023-04-27T05:42:17.325Z,3.53
2023-04-27T05:44:45.969Z,3.61
2023-04-27T05:47:26.587Z,3.67
2023-04-27T05:49:55.290Z,3.75
2023-04-27T05:52:23.778Z,3.84
2023-04-27T05:54:58.805Z,3.97
2023-04-27T05:57:27.168Z,4.07
2023-04-27T05:59:54.575Z,4.17
2023-04-27T06:02:23.182Z,4.24
2023-04-27T06:04:54.415Z,4.39
2023-04-27T06:07:21.904Z,4.55
2023-04-27T06:09:51.531Z,4.73
2023-04-27T06:12:20.076Z,4.87
2023-04-27T06:14:47.392Z,4.94
2023-04-27T06:17:14.912Z,5.01
2023-04-27T06:19:48.949Z,5.11
2023-04-27T06:22:16.372Z,5.19
2023-04-27T06:24:46.056Z,5.28
2023-04-27T06:27:16.352Z,5.41
2023-04-27T06:29:43.574Z,5.54
2023-04-27T06:32:11.425Z,5.70
2023-04-27T06:34:38.749Z,5.86
2023-04-27T06:37:06.541Z,5.97
2023-04-27T06:39:34.120Z,6.10
2023-04-27T06:42:06.153Z,6.13
2023-04-27T06:44:33.526Z,6.33
2023-04-27T06:47:00.842Z,6.54
2023-04-27T06:49:29.921Z,6.67
2023-04-27T06:51:57.710Z,6.87
2023-04-27T06:54:27.024Z,7.09
2023-04-27T06:56:55.542Z,7.16
2023-04-27T06:59:23.939Z,7.28
2023-04-27T07:01:51.761Z,7.36
2023-04-27T07:04:19.346Z,7.44
2023-04-27T07:06:47.060Z,7.41
2023-04-27T07:09:27.034Z,7.54
2023-04-27T07:11:56.061Z,7.72
2023-04-27T07:14:23.468Z,7.86
2023-04-27T07:16:52.927Z,8.01
2023-04-27T07:19:27.764Z,8.15
2023-04-27T07:21:58.929Z,8.29
2023-04-27T07:24:26.693Z,8.55
2023-04-27T07:26:57.989Z,8.76
2023-04-27T07:29:34.361Z,8.99
2023-04-27T07:32:05.240Z,9.25
2023-04-27T07:34:44.927Z,9.33
2023-04-27T07:37:20.523Z,9.38
2023-04-27T07:39:54.661Z,9.47
2023-04-27T07:42:23.646Z,9.71
2023-04-27T07:44:53.279Z,9.88
2023-04-27T07:47:22.483Z,9.80
2023-04-27T07:49:52.979Z,9.75
2023-04-27T07:52:20.867Z,9.91
2023-04-27T07:54:49.633Z,9.97
2023-04-27T07:57:17.044Z,9.89
2023-04-27T07:59:47.396Z,9.87
2023-04-27T08:02:20.131Z,9.77
2023-04-27T08:04:51.900Z,9.83
2023-04-27T08:07:20.949Z,9.83
2023-04-27T08:09:52.711Z,9.84
2023-04-27T08:12:23.565Z,9.90
2023-04-27T08:14:52.593Z,9.96
2023-04-27T08:17:22.050Z,9.97
2023-04-27T08:19:49.358Z,10.01
2023-04-27T08:22:43.468Z,10.04
2023-04-27T08:25:10.797Z,10.13
2023-04-27T08:27:41.279Z,10.10
2023-04-27T08:30:09.635Z,10.20
2023-04-27T08:32:36.960Z,10.33
2023-04-27T08:35:05.184Z,10.48
2023-04-27T08:37:34.995Z,10.65
2023-04-27T08:40:07.977Z,10.79
2023-04-27T08:42:41.659Z,10.98
2023-04-27T08:45:11.339Z,11.16
2023-04-27T08:47:43.707Z,11.26
2023-04-27T08:50:17.220Z,11.44
2023-04-27T08:52:50.149Z,11.63
2023-04-27T08:55:17.893Z,11.83
2023-04-27T08:58:08.260Z,11.94
2023-04-27T09:00:42.373Z,12.00
2023-04-27T09:03:27.667Z,12.20
2023-04-27T09:06:04.611Z,12.44
2023-04-27T09:09:03.796Z,12.71
2023-04-27T09:11:41.150Z,12.90
2023-04-27T09:14:23.971Z,12.88
2023-04-27T09:17:00.318Z,12.90
2023-04-27T09:19:30.448Z,12.89
2023-04-27T09:22:17.784Z,12.93
2023-04-27T09:25:19.111Z,12.97
2023-04-27T09:27:49.446Z,13.07
2023-04-27T09:30:17.881Z,13.18
2023-04-27T09:32:58.471Z,13.34
2023-04-27T09:35:34.422Z,13.51
2023-04-27T09:38:02.746Z,13.60
2023-04-27T09:40:31.517Z,13.76
2023-04-27T09:43:09.266Z,13.79
2023-04-27T09:45:39.260Z,13.75
2023-04-27T09:48:14.161Z,13.82
2023-04-27T09:50:49.588Z,13.91
2023-04-27T09:53:38.980Z,14.02
2023-04-27T09:56:33.563Z,14.18
2023-04-27T09:59:47.165Z,14.33
2023-04-27T10:06:05.216Z,14.44
2023-04-27T10:08:36.618Z,14.54
2023-04-27T10:11:23.338Z,14.65
2023-04-27T10:13:56.317Z,14.76
2023-04-27T10:16:29.902Z,14.81
2023-04-27T10:18:57.787Z,14.92
2023-04-27T10:21:27.052Z,15.05
2023-04-27T10:24:10.725Z,15.21
2023-04-27T10:26:50.745Z,15.24
2023-04-27T10:29:22.523Z,15.29
2023-04-27T10:31:49.939Z,15.39
2023-04-27T10:34:21.883Z,15.54
2023-04-27T10:37:08.505Z,15.77
2023-04-27T10:39:50.474Z,15.84
2023-04-27T10:42:37.982Z,15.95
2023-04-27T10:45:08.216Z,16.15
2023-04-27T10:47:48.002Z,16.33
2023-04-27T10:50:18.532Z,16.55
2023-04-27T10:52:47.629Z,16.59
2023-04-27T10:55:36.779Z,16.56
2023-04-27T10:58:06.528Z,16.61
2023-04-27T11:00:46.687Z,16.80
2023-04-27T11:03:25.622Z,17.07
2023-04-27T11:06:12.724Z,17.41
2023-04-27T11:08:48.524Z,17.61
2023-04-27T11:11:18.429Z,17.80
2023-04-27T11:13:55.368Z,17.91
2023-04-27T11:16:24.763Z,18.04
2023-04-27T11:18:53.460Z,18.13
2023-04-27T11:21:26.730Z,18.09
2023-04-27T11:23:54.193Z,18.10
2023-04-27T11:26:26.851Z,18.09
2023-04-27T11:29:10.261Z,18.15
2023-04-27T11:31:49.152Z,18.24
2023-04-27T11:34:26.507Z,18.33
2023-04-27T11:37:24.228Z,18.41
2023-04-27T11:40:00.258Z,18.42
2023-04-27T11:42:31.680Z,18.37
2023-04-27T11:45:06.627Z,18.35
2023-04-27T11:47:36.405Z,18.52
2023-04-27T11:50:09.388Z,18.67
2023-04-27T11:52:41.259Z,18.56
2023-04-27T11:55:15.939Z,18.29
2023-04-27T11:57:47.708Z,17.97
2023-04-27T12:00:17.269Z,17.73
2023-04-27T12:02:45.019Z,17.50
2023-04-27T12:05:13.954Z,17.42
2023-04-27T12:07:43.228Z,17.43
2023-04-27T12:10:13.737Z,17.32
2023-04-27T12:12:43.665Z,17.15
2023-04-27T12:15:11.719Z,17.09
2023-04-27T12:17:41.937Z,16.98
2023-04-27T12:20:20.161Z,16.91
2023-04-27T12:22:55.107Z,16.85
2023-04-27T12:25:23.178Z,16.87
2023-04-27T12:27:51.162Z,16.85
2023-04-27T12:30:20.217Z,16.92
2023-04-27T12:32:47.992Z,17.04
2023-04-27T12:35:23.447Z,17.05
2023-04-27T12:37:54.209Z,17.08
2023-04-27T12:40:23.831Z,16.94
2023-04-27T12:42:55.932Z,16.90
2023-04-27T12:45:24.985Z,16.91
2023-04-27T12:48:03.890Z,17.01
2023-04-27T12:50:37.632Z,16.92
2023-04-27T12:53:05.079Z,16.90
2023-04-27T12:55:34.406Z,16.91
2023-04-27T12:58:06.450Z,16.83
2023-04-27T13:00:36.055Z,16.79
2023-04-27T13:03:09.702Z,16.89
2023-04-27T13:05:40.164Z,17.01
2023-04-27T13:08:09.244Z,17.15
2023-04-27T13:10:43.278Z,17.27
2023-04-27T13:13:21.159Z,17.45
2023-04-27T13:15:49.409Z,17.70
2023-04-27T13:18:18.454Z,17.90
2023-04-27T13:20:48.410Z,18.06
2023-04-27T13:23:21.752Z,18.17
2023-04-27T13:25:52.462Z,18.27
2023-04-27T13:28:23.816Z,18.20
2023-04-27T13:31:14.685Z,18.11
2023-04-27T13:34:06.151Z,18.06
2023-04-27T13:36:36.695Z,17.94
2023-04-27T13:39:13.002Z,17.81
2023-04-27T13:41:44.908Z,17.66
2023-04-27T13:44:15.185Z,17.68
2023-04-27T13:46:42.820Z,17.73
2023-04-27T13:49:15.028Z,17.69
2023-04-27T13:51:42.555Z,17.62
2023-04-27T13:56:54.239Z,17.50
2023-04-27T13:59:37.400Z,17.48
2023-04-27T14:02:06.676Z,17.41
2023-04-27T14:04:38.469Z,17.48
2023-04-27T14:07:07.341Z,17.49
2023-04-27T14:09:37.094Z,17.53
2023-04-27T14:12:13.517Z,17.51
2023-04-27T14:14:41.689Z,17.46
2023-04-27T14:17:11.010Z,17.37
2023-04-27T14:20:09.783Z,17.27
2023-04-27T14:22:37.608Z,17.20
2023-04-27T14:25:07.231Z,17.27
2023-04-27T14:27:35.419Z,17.29
2023-04-27T14:30:08.366Z,17.26
2023-04-27T14:32:36.567Z,17.09
2023-04-27T14:35:04.367Z,17.01
2023-04-27T14:37:32.738Z,16.94
2023-04-27T14:40:01.187Z,16.87
2023-04-27T14:42:28.566Z,16.79
2023-04-27T14:45:02.900Z,16.65
2023-04-27T14:47:30.444Z,16.47
2023-04-27T14:50:03.656Z,16.42
2023-04-27T14:52:31.401Z,16.37
2023-04-27T14:55:00.414Z,16.27
2023-04-27T14:57:29.934Z,16.13
2023-04-27T14:59:57.211Z,16.08
2023-04-27T15:02:27.863Z,16.09
2023-04-27T15:04:56.425Z,16.20
2023-04-27T15:07:24.809Z,16.38
2023-04-27T15:09:56.413Z,16.52
2023-04-27T15:12:26.319Z,16.55
2023-04-27T15:14:54.153Z,16.44
2023-04-27T15:17:23.882Z,16.35
2023-04-27T15:19:52.483Z,16.29
2023-04-27T15:22:19.784Z,16.23
2023-04-27T15:24:49.159Z,16.27
2023-04-27T15:27:18.558Z,16.12
2023-04-27T15:29:55.459Z,15.95
2023-04-27T15:32:25.239Z,15.88
2023-04-27T15:34:56.404Z,15.82
2023-04-27T15:37:37.205Z,15.79
2023-04-27T15:40:13.080Z,15.64
2023-04-27T15:42:47.894Z,15.58
2023-04-27T15:45:29.198Z,15.53
2023-04-27T15:47:58.705Z,15.41
2023-04-27T15:50:33.614Z,15.36
2023-04-27T15:53:04.045Z,15.35
2023-04-27T15:55:32.172Z,15.25
2023-04-27T15:58:00.727Z,15.14
2023-04-27T16:00:36.272Z,15.04
2023-04-27T16:03:10.711Z,14.86
2023-04-27T16:05:43.898Z,14.80
2023-04-27T16:08:16.860Z,14.68
2023-04-27T16:10:53.671Z,14.57
2023-04-27T16:13:23.866Z,14.50
2023-04-27T16:15:51.370Z,14.42
2023-04-27T16:18:26.371Z,14.34
2023-04-27T16:20:54.222Z,14.31
2023-04-27T16:23:24.461Z,14.28
2023-04-27T16:25:52.703Z,14.28
2023-04-27T16:28:27.662Z,14.27
2023-04-27T16:30:55.082Z,14.31
2023-04-27T16:33:22.451Z,14.33
2023-04-27T16:35:50.266Z,14.40
2023-04-27T16:38:22.573Z,14.42
2023-04-27T16:40:56.142Z,14.40
2023-04-27T16:43:26.623Z,14.31
2023-04-27T16:45:56.640Z,14.21
2023-04-27T16:48:23.989Z,14.12
2023-04-27T16:50:55.262Z,14.04
2023-04-27T16:53:25.422Z,13.94
2023-04-27T16:56:02.014Z,13.85
2023-04-27T16:58:40.427Z,13.79
2023-04-27T17:01:17.438Z,13.71
2023-04-27T17:03:45.117Z,13.63
2023-04-27T17:06:17.140Z,13.58
2023-04-27T17:08:56.186Z,13.50
2023-04-27T17:11:26.515Z,13.45
2023-04-27T17:13:57.019Z,13.38
2023-04-27T17:16:25.416Z,13.34
2023-04-27T17:18:54.277Z,13.27
2023-04-27T17:21:25.334Z,13.25
2023-04-27T17:23:56.938Z,13.21
2023-04-27T17:26:24.429Z,13.16
2023-04-27T17:28:51.853Z,13.11
2023-04-27T17:31:20.215Z,13.07
2023-04-27T17:33:47.480Z,13.07
2023-04-27T17:36:15.123Z,13.04
2023-04-27T17:38:42.524Z,13.00
2023-04-27T17:41:11.110Z,12.98
2023-04-27T17:43:38.904Z,12.94
2023-04-27T17:46:10.079Z,12.91
2023-04-27T17:48:40.304Z,12.88
2023-04-27T17:51:09.332Z,12.82
2023-04-27T17:53:42.651Z,12.81
2023-04-27T17:56:10.466Z,12.78
2023-04-27T17:58:45.148Z,12.77
2023-04-27T18:01:26.926Z,12.70
2023-04-27T18:03:59.711Z,12.66
2023-04-27T18:06:31.751Z,12.62
2023-04-27T18:08:59.915Z,12.60
2023-04-27T18:11:28.812Z,12.58
2023-04-27T18:14:02.121Z,12.55
2023-04-27T18:16:29.630Z,12.51
2023-04-27T18:18:57.546Z,12.50
2023-04-27T18:21:28.614Z,12.49
2023-04-27T18:23:57.286Z,12.45
2023-04-27T18:26:26.216Z,12.40
2023-04-27T18:28:55.988Z,12.35
2023-04-27T18:31:24.703Z,12.31
2023-04-27T18:33:52.212Z,12.28
2023-04-27T18:36:21.943Z,12.24
2023-04-27T18:38:49.824Z,12.20
2023-04-27T18:41:18.874Z,12.16
2023-04-27T18:43:46.474Z,12.09
2023-04-27T18:46:13.901Z,12.08
2023-04-27T18:48:41.935Z,12.09
2023-04-27T18:51:09.257Z,12.05
2023-04-27T18:53:38.047Z,12.03
2023-04-27T18:56:07.003Z,12.00
2023-04-27T18:58:34.973Z,11.97
2023-04-27T19:01:02.341Z,11.95
2023-04-27T19:03:29.912Z,11.93
2023-04-27T19:05:57.482Z,11.90
2023-04-27T19:08:27.289Z,11.86
2023-04-27T19:10:56.533Z,11.80
2023-04-27T19:13:32.084Z,11.78
2023-04-27T19:15:59.479Z,11.75
2023-04-27T19:18:27.494Z,11.70
2023-04-27T19:20:54.942Z,11.69
2023-04-27T19:23:22.206Z,11.68
2023-04-27T19:25:50.584Z,11.64
2023-04-27T19:28:23.339Z,11.61
2023-04-27T19:30:52.758Z,11.59
2023-04-27T19:33:28.765Z,11.56
2023-04-27T19:35:58.339Z,11.50
2023-04-27T19:38:26.214Z,11.47
2023-04-27T19:40:53.680Z,11.46
2023-04-27T19:43:21.889Z,11.44
2023-04-27T19:45:49.457Z,11.42
2023-04-27T19:48:17.954Z,11.36
2023-04-27T19:50:45.436Z,11.34
2023-04-27T19:53:14.432Z,11.30
2023-04-27T19:55:43.107Z,11.27
2023-04-27T19:58:10.851Z,11.22
2023-04-27T20:00:40.429Z,11.20
2023-04-27T20:03:08.070Z,11.18
2023-04-27T20:05:37.646Z,11.12
2023-04-27T20:08:05.188Z,11.08
2023-04-27T20:10:33.051Z,11.06
2023-04-27T20:13:01.317Z,11.06
2023-04-27T20:15:29.732Z,11.02
2023-04-27T20:17:59.001Z,11.00
2023-04-27T20:20:26.368Z,10.97
2023-04-27T20:22:53.946Z,10.95
2023-04-27T20:25:21.305Z,10.91
2023-04-27T20:27:48.559Z,10.86
2023-04-27T20:30:16.030Z,10.82
2023-04-27T20:32:45.115Z,10.81
2023-04-27T20:35:13.525Z,10.77
2023-04-27T20:37:43.415Z,10.75
2023-04-27T20:40:17.286Z,10.73
2023-04-27T20:42:45.784Z,10.67
2023-04-27T20:45:13.722Z,10.70
2023-04-27T20:47:41.433Z,10.69
2023-04-27T20:50:10.177Z,10.66
2023-04-27T20:52:40.078Z,10.62
2023-04-27T20:55:09.493Z,10.64
2023-04-27T20:57:36.815Z,10.60
2023-04-27T21:00:04.925Z,10.57
2023-04-27T21:02:32.185Z,10.57
2023-04-27T21:04:59.549Z,10.57
2023-04-27T21:07:26.977Z,10.55
2023-04-27T21:09:56.138Z,10.53
2023-04-27T21:12:23.466Z,10.47
2023-04-27T21:14:50.785Z,10.49
2023-04-27T21:17:18.277Z,10.49
2023-04-27T21:19:45.622Z,10.48
2023-04-27T21:22:12.969Z,10.44
2023-04-27T21:24:40.512Z,10.39
2023-04-27T21:27:07.926Z,10.39
2023-04-27T21:29:35.984Z,10.37
2023-04-27T21:32:10.611Z,10.34
2023-04-27T21:34:40.370Z,10.32
2023-04-27T21:37:10.396Z,10.30
2023-04-27T21:39:38.990Z,10.30
2023-04-27T21:42:06.426Z,10.29
2023-04-27T21:44:33.796Z,10.29
2023-04-27T21:47:01.362Z,10.28
2023-04-27T21:49:29.854Z,10.26
2023-04-27T21:51:58.864Z,10.25
2023-04-27T21:54:28.476Z,10.24
2023-04-27T21:56:56.226Z,10.23
2023-04-27T21:59:23.875Z,10.22
2023-04-27T22:01:52.584Z,10.20
2023-04-27T22:04:20.322Z,10.20
2023-04-27T22:06:53.335Z,10.19
2023-04-27T22:09:23.376Z,10.14
2023-04-27T22:11:51.889Z,10.18
2023-04-27T22:14:24.839Z,10.19
2023-04-27T22:16:58.320Z,10.18
2023-04-27T22:19:26.000Z,10.17
2023-04-27T22:21:54.741Z,10.16
2023-04-27T22:24:22.440Z,10.13
2023-04-27T22:26:52.222Z,10.13
2023-04-27T22:29:20.957Z,10.14
2023-04-27T22:31:48.361Z,10.12
2023-04-27T22:34:16.169Z,10.10
2023-04-27T22:36:43.937Z,10.07
2023-04-27T22:39:12.928Z,10.04
2023-04-27T22:41:46.103Z,10.03
2023-04-27T22:44:13.607Z,10.02
2023-04-27T22:46:43.989Z,10.00
2023-04-27T22:49:11.295Z,9.98
2023-04-27T22:51:38.753Z,9.94
2023-04-27T22:54:09.952Z,9.86
2023-04-27T22:56:40.451Z,9.76
2023-04-27T22:59:07.698Z,9.65
2023-04-27T23:01:35.048Z,9.55
2023-04-27T23:04:02.550Z,9.45
2023-04-27T23:06:30.430Z,9.36
2023-04-27T23:08:59.225Z,9.33
2023-04-27T23:11:27.827Z,9.31
2023-04-27T23:13:57.470Z,9.32
2023-04-27T23:16:25.913Z,9.30
2023-04-27T23:18:53.403Z,9.32
2023-04-27T23:21:23.477Z,9.33
2023-04-27T23:23:50.857Z,9.37
2023-04-27T23:26:18.814Z,9.37
2023-04-27T23:28:46.111Z,9.37
2023-04-27T23:31:14.896Z,9.31
2023-04-27T23:33:42.419Z,9.25
2023-04-27T23:36:09.771Z,9.14
2023-04-27T23:38:37.134Z,9.08
2023-04-27T23:41:06.311Z,8.95
2023-04-27T23:43:34.462Z,8.83
2023-04-27T23:46:02.567Z,8.74
2023-04-27T23:48:29.936Z,8.65
2023-04-27T23:51:03.141Z,8.57
2023-04-27T23:53:31.916Z,8.53
2023-04-27T23:55:59.209Z,8.50
2023-04-27T23:58:26.787Z,8.45
